sensor_id;sensor_type;location;lat;lon;timestamp;P1;durP1;ratioP1;P2;durP2;ratioP2
53751;SDS011;41095;53.090;6.692;2023-02-05T00:02:16;8.50;;;6.88;;
53751;SDS011;41095;53.090;6.692;2023-02-05T00:04:42;12.77;;;7.57;;
53751;SDS011;41095;53.090;6.692;2023-02-05T00:07:08;7.75;;;7.03;;
53751;SDS011;41095;53.090;6.692;2023-02-05T00:09:33;13.23;;;6.88;;
53751;SDS011;41095;53.090;6.692;2023-02-05T00:12:00;7.70;;;6.95;;
53751;SDS011;41095;53.090;6.692;2023-02-05T00:14:26;11.55;;;7.32;;
53751;SDS011;41095;53.090;6.692;2023-02-05T00:16:52;10.90;;;7.53;;
53751;SDS011;41095;53.090;6.692;2023-02-05T00:19:18;7.75;;;6.95;;
53751;SDS011;41095;53.090;6.692;2023-02-05T00:21:44;11.25;;;6.60;;
53751;SDS011;41095;53.090;6.692;2023-02-05T00:24:10;9.68;;;7.40;;
53751;SDS011;41095;53.090;6.692;2023-02-05T00:26:36;9.30;;;6.75;;
53751;SDS011;41095;53.090;6.692;2023-02-05T00:29:03;9.95;;;7.45;;
53751;SDS011;41095;53.090;6.692;2023-02-05T00:31:29;9.48;;;6.95;;
53751;SDS011;41095;53.090;6.692;2023-02-05T00:33:55;11.45;;;7.03;;
53751;SDS011;41095;53.090;6.692;2023-02-05T00:36:22;8.80;;;7.03;;
53751;SDS011;41095;53.090;6.692;2023-02-05T00:38:49;9.98;;;7.72;;
53751;SDS011;41095;53.090;6.692;2023-02-05T00:41:16;8.77;;;7.60;;
53751;SDS011;41095;53.090;6.692;2023-02-05T00:43:42;8.48;;;6.15;;
53751;SDS011;41095;53.090;6.692;2023-02-05T00:46:09;13.80;;;7.20;;
53751;SDS011;41095;53.090;6.692;2023-02-05T00:48:36;12.85;;;7.25;;
53751;SDS011;41095;53.090;6.692;2023-02-05T00:51:02;8.85;;;7.32;;
53751;SDS011;41095;53.090;6.692;2023-02-05T00:53:28;12.88;;;7.68;;
53751;SDS011;41095;53.090;6.692;2023-02-05T00:55:54;9.20;;;7.32;;
53751;SDS011;41095;53.090;6.692;2023-02-05T00:58:20;9.80;;;6.63;;
53751;SDS011;41095;53.090;6.692;2023-02-05T01:00:46;12.13;;;7.28;;
53751;SDS011;41095;53.090;6.692;2023-02-05T01:03:13;8.75;;;6.72;;
53751;SDS011;41095;53.090;6.692;2023-02-05T01:05:39;14.48;;;7.07;;
53751;SDS011;41095;53.090;6.692;2023-02-05T01:08:06;13.60;;;8.48;;
53751;SDS011;41095;53.090;6.692;2023-02-05T01:10:32;9.05;;;6.53;;
53751;SDS011;41095;53.090;6.692;2023-02-05T01:12:58;12.75;;;8.10;;
53751;SDS011;41095;53.090;6.692;2023-02-05T01:15:24;12.85;;;7.53;;
53751;SDS011;41095;53.090;6.692;2023-02-05T01:17:50;13.80;;;7.43;;
53751;SDS011;41095;53.090;6.692;2023-02-05T01:20:16;8.70;;;7.60;;
53751;SDS011;41095;53.090;6.692;2023-02-05T01:22:42;10.85;;;8.43;;
53751;SDS011;41095;53.090;6.692;2023-02-05T01:25:08;10.25;;;7.50;;
53751;SDS011;41095;53.090;6.692;2023-02-05T01:27:34;12.63;;;7.65;;
53751;SDS011;41095;53.090;6.692;2023-02-05T01:30:01;11.13;;;7.53;;
53751;SDS011;41095;53.090;6.692;2023-02-05T01:32:28;13.55;;;7.72;;
53751;SDS011;41095;53.090;6.692;2023-02-05T01:34:54;11.65;;;8.63;;
53751;SDS011;41095;53.090;6.692;2023-02-05T01:37:20;10.57;;;8.50;;
53751;SDS011;41095;53.090;6.692;2023-02-05T01:39:45;11.75;;;8.32;;
53751;SDS011;41095;53.090;6.692;2023-02-05T01:42:18;11.77;;;8.00;;
53751;SDS011;41095;53.090;6.692;2023-02-05T01:47:50;11.98;;;8.65;;
53751;SDS011;41095;53.090;6.692;2023-02-05T01:50:20;13.85;;;9.07;;
53751;SDS011;41095;53.090;6.692;2023-02-05T01:53:07;10.73;;;8.23;;
53751;SDS011;41095;53.090;6.692;2023-02-05T01:55:37;11.50;;;8.27;;
53751;SDS011;41095;53.090;6.692;2023-02-05T01:58:06;12.18;;;8.57;;
53751;SDS011;41095;53.090;6.692;2023-02-05T02:00:33;10.23;;;8.35;;
53751;SDS011;41095;53.090;6.692;2023-02-05T02:02:59;14.75;;;8.98;;
53751;SDS011;41095;53.090;6.692;2023-02-05T02:05:25;15.10;;;10.32;;
53751;SDS011;41095;53.090;6.692;2023-02-05T02:07:50;17.15;;;9.60;;
53751;SDS011;41095;53.090;6.692;2023-02-05T02:10:16;18.27;;;10.05;;
53751;SDS011;41095;53.090;6.692;2023-02-05T02:12:44;13.35;;;10.55;;
53751;SDS011;41095;53.090;6.692;2023-02-05T02:15:12;16.75;;;10.30;;
53751;SDS011;41095;53.090;6.692;2023-02-05T02:17:41;16.15;;;10.98;;
53751;SDS011;41095;53.090;6.692;2023-02-05T02:20:15;12.88;;;9.55;;
53751;SDS011;41095;53.090;6.692;2023-02-05T02:25:47;14.05;;;10.77;;
53751;SDS011;41095;53.090;6.692;2023-02-05T02:28:44;16.67;;;10.82;;
53751;SDS011;41095;53.090;6.692;2023-02-05T02:31:34;15.20;;;11.13;;
53751;SDS011;41095;53.090;6.692;2023-02-05T02:34:36;18.27;;;11.60;;
53751;SDS011;41095;53.090;6.692;2023-02-05T02:37:10;19.33;;;12.13;;
53751;SDS011;41095;53.090;6.692;2023-02-05T02:40:00;18.25;;;12.05;;
53751;SDS011;41095;53.090;6.692;2023-02-05T02:43:07;17.65;;;10.57;;
53751;SDS011;41095;53.090;6.692;2023-02-05T02:45:34;23.50;;;13.23;;
53751;SDS011;41095;53.090;6.692;2023-02-05T02:48:06;15.35;;;11.52;;
53751;SDS011;41095;53.090;6.692;2023-02-05T02:50:33;16.55;;;10.75;;
53751;SDS011;41095;53.090;6.692;2023-02-05T02:53:06;19.05;;;11.60;;
53751;SDS011;41095;53.090;6.692;2023-02-05T02:55:37;22.60;;;13.02;;
53751;SDS011;41095;53.090;6.692;2023-02-05T02:58:07;16.67;;;11.63;;
53751;SDS011;41095;53.090;6.692;2023-02-05T03:00:39;19.45;;;11.50;;
53751;SDS011;41095;53.090;6.692;2023-02-05T03:03:08;17.33;;;12.35;;
53751;SDS011;41095;53.090;6.692;2023-02-05T03:05:35;13.65;;;10.30;;
53751;SDS011;41095;53.090;6.692;2023-02-05T03:08:05;17.20;;;11.57;;
53751;SDS011;41095;53.090;6.692;2023-02-05T03:10:38;24.65;;;14.75;;
53751;SDS011;41095;53.090;6.692;2023-02-05T03:13:14;21.02;;;14.30;;
53751;SDS011;41095;53.090;6.692;2023-02-05T03:15:41;21.10;;;13.23;;
53751;SDS011;41095;53.090;6.692;2023-02-05T03:18:08;16.52;;;11.43;;
53751;SDS011;41095;53.090;6.692;2023-02-05T03:20:37;25.60;;;13.18;;
53751;SDS011;41095;53.090;6.692;2023-02-05T03:23:09;21.95;;;13.75;;
53751;SDS011;41095;53.090;6.692;2023-02-05T03:25:34;21.17;;;14.05;;
53751;SDS011;41095;53.090;6.692;2023-02-05T03:28:00;15.10;;;11.75;;
53751;SDS011;41095;53.090;6.692;2023-02-05T03:31:10;15.57;;;11.43;;
53751;SDS011;41095;53.090;6.692;2023-02-05T03:39:37;19.73;;;13.93;;
53751;SDS011;41095;53.090;6.692;2023-02-05T03:42:11;23.98;;;14.38;;
53751;SDS011;41095;53.090;6.692;2023-02-05T03:44:45;16.90;;;11.75;;
53751;SDS011;41095;53.090;6.692;2023-02-05T03:47:36;26.05;;;15.98;;
53751;SDS011;41095;53.090;6.692;2023-02-05T03:50:27;21.60;;;15.13;;
53751;SDS011;41095;53.090;6.692;2023-02-05T03:53:07;28.95;;;17.92;;
53751;SDS011;41095;53.090;6.692;2023-02-05T03:55:41;28.40;;;16.10;;
53751;SDS011;41095;53.090;6.692;2023-02-05T03:58:23;33.40;;;17.52;;
53751;SDS011;41095;53.090;6.692;2023-02-05T04:00:53;32.60;;;20.30;;
53751;SDS011;41095;53.090;6.692;2023-02-05T04:03:19;33.65;;;19.13;;
53751;SDS011;41095;53.090;6.692;2023-02-05T04:05:44;37.35;;;19.85;;
53751;SDS011;41095;53.090;6.692;2023-02-05T04:08:10;28.70;;;17.15;;
53751;SDS011;41095;53.090;6.692;2023-02-05T04:10:36;36.80;;;19.70;;
53751;SDS011;41095;53.090;6.692;2023-02-05T04:13:02;36.35;;;20.80;;
53751;SDS011;41095;53.090;6.692;2023-02-05T04:15:27;37.22;;;20.90;;
53751;SDS011;41095;53.090;6.692;2023-02-05T04:17:53;34.42;;;21.55;;
53751;SDS011;41095;53.090;6.692;2023-02-05T04:20:21;43.75;;;20.85;;
53751;SDS011;41095;53.090;6.692;2023-02-05T04:22:47;37.05;;;21.08;;
53751;SDS011;41095;53.090;6.692;2023-02-05T04:25:13;36.38;;;20.67;;
53751;SDS011;41095;53.090;6.692;2023-02-05T04:27:39;35.42;;;20.33;;
53751;SDS011;41095;53.090;6.692;2023-02-05T04:30:04;36.35;;;21.40;;
53751;SDS011;41095;53.090;6.692;2023-02-05T04:32:31;36.40;;;20.20;;
53751;SDS011;41095;53.090;6.692;2023-02-05T04:34:56;43.20;;;23.58;;
53751;SDS011;41095;53.090;6.692;2023-02-05T04:37:22;41.92;;;23.13;;
53751;SDS011;41095;53.090;6.692;2023-02-05T04:39:49;41.50;;;22.83;;
53751;SDS011;41095;53.090;6.692;2023-02-05T04:42:15;32.10;;;20.27;;
53751;SDS011;41095;53.090;6.692;2023-02-05T04:44:41;37.70;;;21.73;;
53751;SDS011;41095;53.090;6.692;2023-02-05T04:47:07;45.63;;;23.10;;
53751;SDS011;41095;53.090;6.692;2023-02-05T04:49:33;41.53;;;23.08;;
53751;SDS011;41095;53.090;6.692;2023-02-05T04:51:59;44.90;;;23.00;;
53751;SDS011;41095;53.090;6.692;2023-02-05T04:54:25;41.60;;;22.08;;
53751;SDS011;41095;53.090;6.692;2023-02-05T04:56:52;39.75;;;20.27;;
53751;SDS011;41095;53.090;6.692;2023-02-05T04:59:19;41.75;;;24.75;;
53751;SDS011;41095;53.090;6.692;2023-02-05T05:01:45;34.38;;;20.75;;
53751;SDS011;41095;53.090;6.692;2023-02-05T05:04:10;39.35;;;22.08;;
53751;SDS011;41095;53.090;6.692;2023-02-05T05:06:36;37.17;;;23.25;;
53751;SDS011;41095;53.090;6.692;2023-02-05T05:09:02;31.67;;;17.60;;
53751;SDS011;41095;53.090;6.692;2023-02-05T05:11:27;24.73;;;17.33;;
53751;SDS011;41095;53.090;6.692;2023-02-05T05:13:53;33.15;;;20.73;;
53751;SDS011;41095;53.090;6.692;2023-02-05T05:16:19;38.45;;;22.42;;
53751;SDS011;41095;53.090;6.692;2023-02-05T05:18:44;38.70;;;20.88;;
53751;SDS011;41095;53.090;6.692;2023-02-05T05:21:10;35.85;;;21.65;;
53751;SDS011;41095;53.090;6.692;2023-02-05T05:23:36;27.90;;;19.00;;
53751;SDS011;41095;53.090;6.692;2023-02-05T05:26:04;34.55;;;21.73;;
53751;SDS011;41095;53.090;6.692;2023-02-05T05:28:33;38.38;;;22.33;;
53751;SDS011;41095;53.090;6.692;2023-02-05T05:31:04;33.53;;;22.65;;
53751;SDS011;41095;53.090;6.692;2023-02-05T05:33:36;30.35;;;18.85;;
53751;SDS011;41095;53.090;6.692;2023-02-05T05:36:02;33.63;;;19.75;;
53751;SDS011;41095;53.090;6.692;2023-02-05T05:38:29;37.05;;;18.38;;
53751;SDS011;41095;53.090;6.692;2023-02-05T05:40:54;35.13;;;19.95;;
53751;SDS011;41095;53.090;6.692;2023-02-05T05:43:38;32.60;;;18.00;;
53751;SDS011;41095;53.090;6.692;2023-02-05T05:46:10;32.22;;;18.70;;
53751;SDS011;41095;53.090;6.692;2023-02-05T05:48:36;30.75;;;19.50;;
53751;SDS011;41095;53.090;6.692;2023-02-05T05:51:02;17.55;;;14.88;;
53751;SDS011;41095;53.090;6.692;2023-02-05T05:53:28;23.50;;;13.32;;
53751;SDS011;41095;53.090;6.692;2023-02-05T05:55:56;17.67;;;12.65;;
53751;SDS011;41095;53.090;6.692;2023-02-05T05:58:22;13.18;;;7.90;;
53751;SDS011;41095;53.090;6.692;2023-02-05T06:00:48;10.93;;;6.60;;
53751;SDS011;41095;53.090;6.692;2023-02-05T06:03:14;11.05;;;5.90;;
53751;SDS011;41095;53.090;6.692;2023-02-05T06:05:40;14.20;;;5.18;;
53751;SDS011;41095;53.090;6.692;2023-02-05T06:08:05;9.60;;;4.47;;
53751;SDS011;41095;53.090;6.692;2023-02-05T06:10:31;8.85;;;4.53;;
53751;SDS011;41095;53.090;6.692;2023-02-05T06:12:57;10.27;;;3.35;;
53751;SDS011;41095;53.090;6.692;2023-02-05T06:15:24;15.13;;;3.88;;
53751;SDS011;41095;53.090;6.692;2023-02-05T06:17:53;8.88;;;3.63;;
53751;SDS011;41095;53.090;6.692;2023-02-05T06:20:18;10.07;;;3.38;;
53751;SDS011;41095;53.090;6.692;2023-02-05T06:22:44;8.55;;;3.40;;
53751;SDS011;41095;53.090;6.692;2023-02-05T06:25:10;7.90;;;2.35;;
53751;SDS011;41095;53.090;6.692;2023-02-05T06:27:36;7.78;;;2.75;;
53751;SDS011;41095;53.090;6.692;2023-02-05T06:30:02;8.18;;;2.47;;
53751;SDS011;41095;53.090;6.692;2023-02-05T06:32:28;8.95;;;2.33;;
53751;SDS011;41095;53.090;6.692;2023-02-05T06:34:54;8.98;;;2.70;;
53751;SDS011;41095;53.090;6.692;2023-02-05T06:37:19;9.80;;;3.17;;
53751;SDS011;41095;53.090;6.692;2023-02-05T06:39:45;7.90;;;3.67;;
53751;SDS011;41095;53.090;6.692;2023-02-05T06:42:11;11.48;;;2.80;;
53751;SDS011;41095;53.090;6.692;2023-02-05T06:44:37;7.53;;;2.55;;
53751;SDS011;41095;53.090;6.692;2023-02-05T06:47:02;6.45;;;2.70;;
53751;SDS011;41095;53.090;6.692;2023-02-05T06:49:28;6.82;;;2.85;;
53751;SDS011;41095;53.090;6.692;2023-02-05T06:51:54;12.48;;;3.33;;
53751;SDS011;41095;53.090;6.692;2023-02-05T06:54:19;9.85;;;3.30;;
53751;SDS011;41095;53.090;6.692;2023-02-05T06:56:45;8.30;;;3.78;;
53751;SDS011;41095;53.090;6.692;2023-02-05T06:59:11;10.43;;;3.67;;
53751;SDS011;41095;53.090;6.692;2023-02-05T07:01:37;9.20;;;3.00;;
53751;SDS011;41095;53.090;6.692;2023-02-05T07:04:03;9.80;;;4.53;;
53751;SDS011;41095;53.090;6.692;2023-02-05T07:06:29;8.13;;;3.10;;
53751;SDS011;41095;53.090;6.692;2023-02-05T07:08:55;10.95;;;3.67;;
53751;SDS011;41095;53.090;6.692;2023-02-05T07:11:21;12.18;;;3.92;;
53751;SDS011;41095;53.090;6.692;2023-02-05T07:13:48;17.35;;;3.53;;
53751;SDS011;41095;53.090;6.692;2023-02-05T07:16:13;10.77;;;3.55;;
53751;SDS011;41095;53.090;6.692;2023-02-05T07:18:39;10.95;;;3.97;;
53751;SDS011;41095;53.090;6.692;2023-02-05T07:21:05;8.82;;;3.60;;
53751;SDS011;41095;53.090;6.692;2023-02-05T07:23:32;10.73;;;3.28;;
53751;SDS011;41095;53.090;6.692;2023-02-05T07:26:04;10.10;;;3.33;;
53751;SDS011;41095;53.090;6.692;2023-02-05T07:28:34;11.95;;;3.65;;
53751;SDS011;41095;53.090;6.692;2023-02-05T07:31:04;13.50;;;3.90;;
53751;SDS011;41095;53.090;6.692;2023-02-05T07:33:31;7.55;;;2.95;;
53751;SDS011;41095;53.090;6.692;2023-02-05T07:35:57;7.82;;;2.60;;
53751;SDS011;41095;53.090;6.692;2023-02-05T07:38:26;9.60;;;3.10;;
53751;SDS011;41095;53.090;6.692;2023-02-05T07:40:51;9.57;;;3.25;;
53751;SDS011;41095;53.090;6.692;2023-02-05T07:43:17;6.20;;;3.47;;
53751;SDS011;41095;53.090;6.692;2023-02-05T07:45:43;8.98;;;2.92;;
53751;SDS011;41095;53.090;6.692;2023-02-05T07:48:08;6.68;;;2.78;;
53751;SDS011;41095;53.090;6.692;2023-02-05T07:50:34;6.07;;;2.47;;
53751;SDS011;41095;53.090;6.692;2023-02-05T07:53:00;9.82;;;3.60;;
53751;SDS011;41095;53.090;6.692;2023-02-05T07:55:25;9.95;;;3.30;;
53751;SDS011;41095;53.090;6.692;2023-02-05T07:57:51;13.98;;;4.10;;
53751;SDS011;41095;53.090;6.692;2023-02-05T08:00:17;8.48;;;3.45;;
53751;SDS011;41095;53.090;6.692;2023-02-05T08:02:43;11.90;;;3.67;;
53751;SDS011;41095;53.090;6.692;2023-02-05T08:05:08;13.18;;;3.88;;
53751;SDS011;41095;53.090;6.692;2023-02-05T08:07:34;13.48;;;4.50;;
53751;SDS011;41095;53.090;6.692;2023-02-05T08:10:02;11.20;;;3.80;;
53751;SDS011;41095;53.090;6.692;2023-02-05T08:12:28;7.20;;;3.58;;
53751;SDS011;41095;53.090;6.692;2023-02-05T08:14:54;8.15;;;3.20;;
53751;SDS011;41095;53.090;6.692;2023-02-05T08:17:19;6.22;;;3.65;;
53751;SDS011;41095;53.090;6.692;2023-02-05T08:19:45;7.03;;;2.95;;
53751;SDS011;41095;53.090;6.692;2023-02-05T08:22:11;12.05;;;4.55;;
53751;SDS011;41095;53.090;6.692;2023-02-05T08:24:36;6.40;;;2.72;;
53751;SDS011;41095;53.090;6.692;2023-02-05T08:27:02;12.57;;;3.90;;
53751;SDS011;41095;53.090;6.692;2023-02-05T08:29:28;12.93;;;4.90;;
53751;SDS011;41095;53.090;6.692;2023-02-05T08:31:54;6.28;;;3.40;;
53751;SDS011;41095;53.090;6.692;2023-02-05T08:34:19;9.20;;;4.25;;
53751;SDS011;41095;53.090;6.692;2023-02-05T08:36:45;7.45;;;3.72;;
53751;SDS011;41095;53.090;6.692;2023-02-05T08:39:11;12.60;;;4.45;;
53751;SDS011;41095;53.090;6.692;2023-02-05T08:41:36;10.52;;;4.32;;
53751;SDS011;41095;53.090;6.692;2023-02-05T08:44:02;12.32;;;3.90;;
53751;SDS011;41095;53.090;6.692;2023-02-05T08:46:28;13.68;;;3.67;;
53751;SDS011;41095;53.090;6.692;2023-02-05T08:48:54;15.02;;;4.30;;
53751;SDS011;41095;53.090;6.692;2023-02-05T08:51:19;8.20;;;3.38;;
53751;SDS011;41095;53.090;6.692;2023-02-05T08:53:47;10.02;;;2.95;;
53751;SDS011;41095;53.090;6.692;2023-02-05T08:56:13;5.60;;;2.90;;
53751;SDS011;41095;53.090;6.692;2023-02-05T08:58:40;7.45;;;3.42;;
53751;SDS011;41095;53.090;6.692;2023-02-05T09:01:07;8.65;;;3.03;;
53751;SDS011;41095;53.090;6.692;2023-02-05T09:03:35;7.70;;;2.50;;
53751;SDS011;41095;53.090;6.692;2023-02-05T09:06:03;8.02;;;2.67;;
53751;SDS011;41095;53.090;6.692;2023-02-05T09:08:30;7.78;;;3.10;;
53751;SDS011;41095;53.090;6.692;2023-02-05T09:10:56;8.68;;;3.00;;
53751;SDS011;41095;53.090;6.692;2023-02-05T09:13:22;10.18;;;3.92;;
53751;SDS011;41095;53.090;6.692;2023-02-05T09:15:48;6.60;;;2.70;;
53751;SDS011;41095;53.090;6.692;2023-02-05T09:18:13;17.05;;;4.47;;
53751;SDS011;41095;53.090;6.692;2023-02-05T09:20:43;6.22;;;2.90;;
53751;SDS011;41095;53.090;6.692;2023-02-05T09:23:11;10.30;;;3.97;;
53751;SDS011;41095;53.090;6.692;2023-02-05T09:25:38;10.18;;;3.42;;
53751;SDS011;41095;53.090;6.692;2023-02-05T09:28:05;11.85;;;3.15;;
53751;SDS011;41095;53.090;6.692;2023-02-05T09:30:36;8.27;;;2.80;;
53751;SDS011;41095;53.090;6.692;2023-02-05T09:33:03;9.25;;;2.58;;
53751;SDS011;41095;53.090;6.692;2023-02-05T09:35:30;8.75;;;2.55;;
53751;SDS011;41095;53.090;6.692;2023-02-05T09:37:57;6.43;;;2.15;;
53751;SDS011;41095;53.090;6.692;2023-02-05T09:40:25;6.28;;;2.30;;
53751;SDS011;41095;53.090;6.692;2023-02-05T09:43:11;5.05;;;3.00;;
53751;SDS011;41095;53.090;6.692;2023-02-05T09:51:19;8.65;;;3.13;;
53751;SDS011;41095;53.090;6.692;2023-02-05T09:53:54;10.77;;;3.30;;
53751;SDS011;41095;53.090;6.692;2023-02-05T09:56:23;8.15;;;3.67;;
53751;SDS011;41095;53.090;6.692;2023-02-05T09:58:52;5.78;;;2.72;;
53751;SDS011;41095;53.090;6.692;2023-02-05T10:01:27;11.30;;;3.00;;
53751;SDS011;41095;53.090;6.692;2023-02-05T10:04:00;11.98;;;3.97;;
53751;SDS011;41095;53.090;6.692;2023-02-05T10:26:49;11.10;;;3.78;;
53751;SDS011;41095;53.090;6.692;2023-02-05T10:34:36;14.90;;;5.53;;
53751;SDS011;41095;53.090;6.692;2023-02-05T10:37:24;12.60;;;5.03;;
53751;SDS011;41095;53.090;6.692;2023-02-05T10:40:20;15.82;;;6.32;;
53751;SDS011;41095;53.090;6.692;2023-02-05T10:43:18;8.27;;;4.45;;
53751;SDS011;41095;53.090;6.692;2023-02-05T10:45:50;6.05;;;3.15;;
53751;SDS011;41095;53.090;6.692;2023-02-05T10:51:00;8.75;;;2.70;;
53751;SDS011;41095;53.090;6.692;2023-02-05T10:53:26;7.35;;;3.20;;
53751;SDS011;41095;53.090;6.692;2023-02-05T10:55:54;10.35;;;3.90;;
53751;SDS011;41095;53.090;6.692;2023-02-05T11:00:59;8.88;;;3.15;;
53751;SDS011;41095;53.090;6.692;2023-02-05T11:03:25;8.77;;;4.82;;
53751;SDS011;41095;53.090;6.692;2023-02-05T11:05:50;13.40;;;4.22;;
53751;SDS011;41095;53.090;6.692;2023-02-05T11:11:04;12.15;;;4.15;;
53751;SDS011;41095;53.090;6.692;2023-02-05T11:13:31;20.30;;;6.18;;
53751;SDS011;41095;53.090;6.692;2023-02-05T11:16:03;16.65;;;4.47;;
53751;SDS011;41095;53.090;6.692;2023-02-05T11:18:34;17.05;;;5.55;;
53751;SDS011;41095;53.090;6.692;2023-02-05T11:21:03;14.57;;;5.20;;
53751;SDS011;41095;53.090;6.692;2023-02-05T11:23:30;15.32;;;5.22;;
53751;SDS011;41095;53.090;6.692;2023-02-05T11:26:07;13.43;;;5.60;;
53751;SDS011;41095;53.090;6.692;2023-02-05T11:28:34;13.60;;;5.80;;
53751;SDS011;41095;53.090;6.692;2023-02-05T11:33:51;15.57;;;5.95;;
53751;SDS011;41095;53.090;6.692;2023-02-05T11:36:32;21.48;;;6.18;;
53751;SDS011;41095;53.090;6.692;2023-02-05T11:38:58;27.58;;;8.20;;
53751;SDS011;41095;53.090;6.692;2023-02-05T11:41:26;22.77;;;6.15;;
53751;SDS011;41095;53.090;6.692;2023-02-05T11:43:54;16.52;;;5.15;;
53751;SDS011;41095;53.090;6.692;2023-02-05T11:46:22;19.98;;;6.25;;
53751;SDS011;41095;53.090;6.692;2023-02-05T11:51:26;16.52;;;5.35;;
53751;SDS011;41095;53.090;6.692;2023-02-05T11:53:53;16.92;;;6.30;;
53751;SDS011;41095;53.090;6.692;2023-02-05T11:56:22;15.02;;;5.13;;
53751;SDS011;41095;53.090;6.692;2023-02-05T12:01:25;8.75;;;4.63;;
53751;SDS011;41095;53.090;6.692;2023-02-05T12:04:00;18.42;;;6.20;;
53751;SDS011;41095;53.090;6.692;2023-02-05T12:06:29;15.88;;;6.22;;
53751;SDS011;41095;53.090;6.692;2023-02-05T12:09:01;20.50;;;7.13;;
53751;SDS011;41095;53.090;6.692;2023-02-05T12:14:13;19.92;;;6.00;;
53751;SDS011;41095;53.090;6.692;2023-02-05T12:19:33;19.67;;;7.68;;
53751;SDS011;41095;53.090;6.692;2023-02-05T12:22:20;13.10;;;5.25;;
53751;SDS011;41095;53.090;6.692;2023-02-05T12:42:06;18.42;;;6.18;;
53751;SDS011;41095;53.090;6.692;2023-02-05T12:45:06;21.42;;;5.65;;
53751;SDS011;41095;53.090;6.692;2023-02-05T12:56:20;22.50;;;7.80;;
53751;SDS011;41095;53.090;6.692;2023-02-05T12:59:43;16.17;;;6.68;;
53751;SDS011;41095;53.090;6.692;2023-02-05T13:04:50;22.80;;;5.45;;
53751;SDS011;41095;53.090;6.692;2023-02-05T13:07:37;23.38;;;7.35;;
53751;SDS011;41095;53.090;6.692;2023-02-05T13:10:30;13.75;;;6.13;;
53751;SDS011;41095;53.090;6.692;2023-02-05T13:12:59;17.85;;;5.78;;
53751;SDS011;41095;53.090;6.692;2023-02-05T13:15:39;19.35;;;7.22;;
53751;SDS011;41095;53.090;6.692;2023-02-05T13:18:13;21.58;;;6.40;;
53751;SDS011;41095;53.090;6.692;2023-02-05T13:21:02;24.65;;;7.10;;
53751;SDS011;41095;53.090;6.692;2023-02-05T13:23:48;20.23;;;7.18;;
53751;SDS011;41095;53.090;6.692;2023-02-05T13:26:38;14.85;;;6.03;;
53751;SDS011;41095;53.090;6.692;2023-02-05T13:29:28;19.42;;;7.60;;
53751;SDS011;41095;53.090;6.692;2023-02-05T13:32:00;16.52;;;5.90;;
53751;SDS011;41095;53.090;6.692;2023-02-05T13:34:31;16.85;;;6.45;;
53751;SDS011;41095;53.090;6.692;2023-02-05T13:55:44;20.45;;;6.38;;
53751;SDS011;41095;53.090;6.692;2023-02-05T13:58:56;22.10;;;7.07;;
53751;SDS011;41095;53.090;6.692;2023-02-05T14:01:25;15.07;;;6.37;;
53751;SDS011;41095;53.090;6.692;2023-02-05T14:04:01;19.23;;;5.78;;
53751;SDS011;41095;53.090;6.692;2023-02-05T14:06:30;21.35;;;6.63;;
53751;SDS011;41095;53.090;6.692;2023-02-05T14:11:41;17.88;;;6.63;;
53751;SDS011;41095;53.090;6.692;2023-02-05T14:16:41;15.50;;;6.40;;
53751;SDS011;41095;53.090;6.692;2023-02-05T14:19:13;21.30;;;6.57;;
53751;SDS011;41095;53.090;6.692;2023-02-05T14:35:54;19.15;;;7.95;;
53751;SDS011;41095;53.090;6.692;2023-02-05T14:44:14;27.27;;;8.50;;
53751;SDS011;41095;53.090;6.692;2023-02-05T14:46:51;28.45;;;8.88;;
53751;SDS011;41095;53.090;6.692;2023-02-05T14:49:25;26.95;;;8.95;;
53751;SDS011;41095;53.090;6.692;2023-02-05T14:52:05;24.15;;;7.47;;
53751;SDS011;41095;53.090;6.692;2023-02-05T14:55:36;29.75;;;8.32;;
53751;SDS011;41095;53.090;6.692;2023-02-05T14:58:01;22.05;;;8.75;;
53751;SDS011;41095;53.090;6.692;2023-02-05T15:05:41;20.65;;;7.00;;
53751;SDS011;41095;53.090;6.692;2023-02-05T15:19:45;24.75;;;7.82;;
53751;SDS011;41095;53.090;6.692;2023-02-05T15:22:49;19.60;;;7.10;;
53751;SDS011;41095;53.090;6.692;2023-02-05T15:25:25;29.55;;;10.27;;
53751;SDS011;41095;53.090;6.692;2023-02-05T15:27:57;21.70;;;7.15;;
53751;SDS011;41095;53.090;6.692;2023-02-05T15:30:29;25.45;;;8.27;;
53751;SDS011;41095;53.090;6.692;2023-02-05T15:33:04;24.15;;;9.20;;
53751;SDS011;41095;53.090;6.692;2023-02-05T15:35:35;25.58;;;8.30;;
53751;SDS011;41095;53.090;6.692;2023-02-05T15:40:57;20.33;;;8.90;;
53751;SDS011;41095;53.090;6.692;2023-02-05T15:43:27;22.73;;;7.65;;
53751;SDS011;41095;53.090;6.692;2023-02-05T15:46:03;27.88;;;8.77;;
53751;SDS011;41095;53.090;6.692;2023-02-05T15:48:32;24.05;;;9.18;;
53751;SDS011;41095;53.090;6.692;2023-02-05T15:53:31;29.98;;;8.98;;
53751;SDS011;41095;53.090;6.692;2023-02-05T15:55:59;21.35;;;8.23;;
53751;SDS011;41095;53.090;6.692;2023-02-05T15:58:28;39.30;;;9.77;;
53751;SDS011;41095;53.090;6.692;2023-02-05T16:00:54;27.23;;;8.88;;
53751;SDS011;41095;53.090;6.692;2023-02-05T16:03:25;24.15;;;8.60;;
53751;SDS011;41095;53.090;6.692;2023-02-05T16:05:56;26.08;;;10.15;;
53751;SDS011;41095;53.090;6.692;2023-02-05T16:08:22;25.80;;;8.48;;
53751;SDS011;41095;53.090;6.692;2023-02-05T16:10:51;24.15;;;10.10;;
53751;SDS011;41095;53.090;6.692;2023-02-05T16:13:22;33.60;;;9.80;;
53751;SDS011;41095;53.090;6.692;2023-02-05T16:16:04;27.42;;;8.48;;
53751;SDS011;41095;53.090;6.692;2023-02-05T16:21:19;25.48;;;8.63;;
53751;SDS011;41095;53.090;6.692;2023-02-05T16:23:59;24.75;;;9.05;;
53751;SDS011;41095;53.090;6.692;2023-02-05T16:26:28;26.90;;;8.65;;
53751;SDS011;41095;53.090;6.692;2023-02-05T16:29:04;26.25;;;9.77;;
53751;SDS011;41095;53.090;6.692;2023-02-05T16:31:31;30.42;;;9.82;;
53751;SDS011;41095;53.090;6.692;2023-02-05T16:34:02;31.63;;;11.18;;
53751;SDS011;41095;53.090;6.692;2023-02-05T16:36:33;31.77;;;10.32;;
53751;SDS011;41095;53.090;6.692;2023-02-05T16:39:13;24.55;;;9.23;;
53751;SDS011;41095;53.090;6.692;2023-02-05T16:41:42;28.23;;;9.15;;
53751;SDS011;41095;53.090;6.692;2023-02-05T16:44:24;23.05;;;7.93;;
53751;SDS011;41095;53.090;6.692;2023-02-05T16:49:34;24.83;;;9.30;;
53751;SDS011;41095;53.090;6.692;2023-02-05T16:52:00;26.95;;;9.27;;
53751;SDS011;41095;53.090;6.692;2023-02-05T16:54:30;23.88;;;8.30;;
53751;SDS011;41095;53.090;6.692;2023-02-05T16:59:52;28.67;;;8.93;;
53751;SDS011;41095;53.090;6.692;2023-02-05T17:02:23;25.58;;;11.52;;
53751;SDS011;41095;53.090;6.692;2023-02-05T17:04:55;28.33;;;8.88;;
53751;SDS011;41095;53.090;6.692;2023-02-05T17:07:22;25.00;;;9.32;;
53751;SDS011;41095;53.090;6.692;2023-02-05T17:09:49;20.52;;;8.00;;
53751;SDS011;41095;53.090;6.692;2023-02-05T17:12:34;27.55;;;8.40;;
53751;SDS011;41095;53.090;6.692;2023-02-05T17:17:44;23.98;;;8.55;;
53751;SDS011;41095;53.090;6.692;2023-02-05T17:25:28;31.05;;;8.45;;
53751;SDS011;41095;53.090;6.692;2023-02-05T17:27:58;24.40;;;7.18;;
53751;SDS011;41095;53.090;6.692;2023-02-05T17:30:26;35.33;;;9.52;;
53751;SDS011;41095;53.090;6.692;2023-02-05T17:32:52;22.98;;;8.45;;
53751;SDS011;41095;53.090;6.692;2023-02-05T17:35:19;26.20;;;11.20;;
53751;SDS011;41095;53.090;6.692;2023-02-05T17:37:46;26.90;;;8.70;;
53751;SDS011;41095;53.090;6.692;2023-02-05T17:40:13;30.27;;;9.00;;
53751;SDS011;41095;53.090;6.692;2023-02-05T17:42:39;24.30;;;9.93;;
53751;SDS011;41095;53.090;6.692;2023-02-05T17:45:25;32.78;;;10.95;;
53751;SDS011;41095;53.090;6.692;2023-02-05T17:47:52;31.00;;;10.30;;